createdAt,value
2019-04-27T00:01:33.687Z,98623.69
2019-04-27T00:04:00.300Z,98620.52
2019-04-27T00:06:26.873Z,98624.72
2019-04-27T00:08:53.608Z,98627.62
2019-04-27T00:11:20.242Z,98624.11
2019-04-27T00:13:46.855Z,98625.62
2019-04-27T00:16:13.533Z,98629.16
2019-04-27T00:18:40.203Z,98620.31
2019-04-27T00:21:06.807Z,98623.34
2019-04-27T00:23:34.037Z,98614.80
2019-04-27T00:26:00.795Z,98621.34
2019-04-27T00:28:27.451Z,98619.33
2019-04-27T00:30:54.067Z,98615.17
2019-04-27T00:33:20.648Z,98608.81
2019-04-27T00:35:47.242Z,98614.31
2019-04-27T00:38:13.844Z,98614.65
2019-04-27T00:40:40.456Z,98612.81
2019-04-27T00:43:07.048Z,98611.50
2019-04-27T00:45:33.654Z,98610.50
2019-04-27T00:48:00.229Z,98612.68
2019-04-27T00:50:26.824Z,98612.35
2019-04-27T00:52:53.409Z,98621.27
2019-04-27T00:55:20.016Z,98618.75
2019-04-27T00:57:46.592Z,98618.25
2019-04-27T01:00:13.508Z,98618.75
2019-04-27T01:02:40.152Z,98614.42
2019-04-27T01:05:06.746Z,98620.28
2019-04-27T01:07:33.473Z,98618.77
2019-04-27T01:10:00.110Z,98615.28
2019-04-27T01:12:26.678Z,98616.78
2019-04-27T01:14:53.607Z,98614.26
2019-04-27T01:17:20.259Z,98604.91
2019-04-27T01:19:46.836Z,98611.38
2019-04-27T01:22:13.444Z,98616.09
2019-04-27T01:24:40.013Z,98611.05
2019-04-27T01:27:06.629Z,98609.39
2019-04-27T01:29:33.202Z,98606.37
2019-04-27T01:31:59.790Z,98597.16
2019-04-27T01:34:26.371Z,98605.00
2019-04-27T01:36:52.970Z,98598.67
2019-04-27T01:39:19.540Z,98599.66
2019-04-27T01:41:46.157Z,98598.98
2019-04-27T01:44:12.734Z,98595.29
2019-04-27T01:46:39.702Z,98592.28
2019-04-27T01:49:06.397Z,98599.63
2019-04-27T01:51:33.015Z,98601.96
2019-04-27T01:53:59.594Z,98614.00
2019-04-27T01:56:26.210Z,98617.20
2019-04-27T01:58:52.791Z,98615.36
2019-04-27T02:01:19.415Z,98605.97
2019-04-27T02:03:45.984Z,98594.76
2019-04-27T02:06:12.586Z,98598.59
2019-04-27T02:08:40.344Z,98592.26
2019-04-27T02:11:07.049Z,98587.57
2019-04-27T02:13:33.618Z,98581.70
2019-04-27T02:16:00.234Z,98574.00
2019-04-27T02:18:35.621Z,98582.19
2019-04-27T02:20:55.160Z,98584.34
2019-04-27T02:23:21.752Z,98581.52
2019-04-27T02:25:49.684Z,98577.30
2019-04-27T02:28:16.511Z,98570.92
2019-04-27T02:30:43.102Z,98568.08
2019-04-27T02:33:12.657Z,98569.23
2019-04-27T02:35:39.113Z,98566.38
2019-04-27T02:38:06.307Z,98567.07
2019-04-27T02:40:32.892Z,98575.25
2019-04-27T02:43:00.055Z,98573.56
2019-04-27T02:45:26.672Z,98574.06
2019-04-27T02:47:53.268Z,98576.06
2019-04-27T02:50:19.850Z,98577.55
2019-04-27T02:52:46.449Z,98571.19
2019-04-27T02:55:13.029Z,98564.33
2019-04-27T02:57:40.006Z,98567.16
2019-04-27T03:00:06.646Z,98573.69
2019-04-27T03:02:33.246Z,98569.81
2019-04-27T03:05:00.628Z,98575.28
2019-04-27T03:07:29.799Z,98576.94
2019-04-27T03:09:55.815Z,98589.89
2019-04-27T03:12:22.428Z,98598.53
2019-04-27T03:14:50.629Z,98598.95
2019-04-27T03:17:20.018Z,98598.35
2019-04-27T03:19:45.691Z,98610.94
2019-04-27T03:22:12.290Z,98624.58
2019-04-27T03:24:39.424Z,98652.52
2019-04-27T03:27:06.183Z,98656.97
2019-04-27T03:29:32.793Z,98665.80
2019-04-27T03:32:01.911Z,98668.77
2019-04-27T03:34:31.988Z,98668.42
2019-04-27T03:36:56.002Z,98671.78
2019-04-27T03:39:22.608Z,98673.16
2019-04-27T03:41:52.287Z,98662.84
2019-04-27T03:44:19.196Z,98674.95
2019-04-27T03:46:45.975Z,98677.32
2019-04-27T03:49:27.981Z,98673.25
2019-04-27T03:51:40.930Z,98671.16
2019-04-27T03:54:07.595Z,98678.76
2019-04-27T03:56:34.167Z,98680.64
2019-04-27T03:59:00.777Z,98684.38
2019-04-27T04:01:27.356Z,98675.72
2019-04-27T04:03:53.949Z,98662.58
2019-04-27T04:06:20.531Z,98682.81
2019-04-27T04:08:49.866Z,98697.23
2019-04-27T04:11:15.431Z,98723.34
2019-04-27T04:13:42.032Z,98725.67
2019-04-27T04:16:10.732Z,98717.50
2019-04-27T04:18:36.947Z,98703.98
2019-04-27T04:21:03.528Z,98691.30
2019-04-27T04:23:30.203Z,98699.20
2019-04-27T04:25:59.508Z,98708.73
2019-04-27T04:28:25.197Z,98727.11
2019-04-27T04:30:51.798Z,98728.78
2019-04-27T04:33:20.581Z,98739.48
2019-04-27T04:35:46.693Z,98730.28
2019-04-27T04:38:13.264Z,98742.30
2019-04-27T04:40:40.215Z,98749.83
2019-04-27T04:43:06.917Z,98741.16
2019-04-27T04:45:33.520Z,98732.61
2019-04-27T04:48:00.112Z,98726.27
2019-04-27T04:50:26.827Z,98721.11
2019-04-27T04:52:53.404Z,98725.64
2019-04-27T04:55:20.562Z,98739.88
2019-04-27T04:57:49.348Z,98745.27
2019-04-27T05:00:15.615Z,98744.61
2019-04-27T05:02:42.270Z,98744.30
2019-04-27T05:05:09.391Z,98745.82
2019-04-27T05:07:36.131Z,98750.36
2019-04-27T05:10:02.714Z,98755.73
2019-04-27T05:12:29.337Z,98772.94
2019-04-27T05:14:55.946Z,98778.47
2019-04-27T05:17:22.523Z,98778.62
2019-04-27T05:19:49.224Z,98790.13
2019-04-27T05:22:15.781Z,98798.47
2019-04-27T05:24:42.403Z,98786.74
2019-04-27T05:27:09.301Z,98775.02
2019-04-27T05:29:36.027Z,98778.88
2019-04-27T05:32:02.641Z,98786.05
2019-04-27T05:34:29.533Z,98783.88
2019-04-27T05:36:56.305Z,98776.82
2019-04-27T05:39:25.060Z,98773.95
2019-04-27T05:41:51.192Z,98792.64
2019-04-27T05:44:19.061Z,98798.94
2019-04-27T05:46:46.093Z,98809.59
2019-04-27T05:49:12.668Z,98827.72
2019-04-27T05:51:41.778Z,98830.84
2019-04-27T05:54:09.072Z,98833.95
2019-04-27T05:56:35.835Z,98845.54
2019-04-27T05:59:02.413Z,98846.66
2019-04-27T06:01:29.681Z,98836.88
2019-04-27T06:03:56.384Z,98827.95
2019-04-27T06:06:23.002Z,98806.84
2019-04-27T06:08:49.629Z,98800.47
2019-04-27T06:11:16.262Z,98816.44
2019-04-27T06:13:42.828Z,98824.94
2019-04-27T06:16:09.596Z,98833.24
2019-04-27T06:18:36.136Z,98840.70
2019-04-27T06:21:02.731Z,98832.64
2019-04-27T06:23:29.307Z,98805.75
2019-04-27T06:25:55.903Z,98801.74
2019-04-27T06:28:22.472Z,98817.12
2019-04-27T06:30:49.267Z,98826.80
2019-04-27T06:33:28.026Z,98827.84
2019-04-27T06:35:44.246Z,98832.69
2019-04-27T06:38:11.597Z,98835.16
2019-04-27T06:40:39.157Z,98836.50
2019-04-27T06:43:05.885Z,98841.84
2019-04-27T06:45:32.454Z,98845.14
2019-04-27T06:47:59.557Z,98841.61
2019-04-27T06:50:26.333Z,98843.73
2019-04-27T06:52:52.944Z,98851.33
2019-04-27T06:55:19.530Z,98857.95
2019-04-27T06:57:46.126Z,98863.41
2019-04-27T07:00:12.709Z,98860.82
2019-04-27T07:02:40.340Z,98867.42
2019-04-27T07:05:08.815Z,98864.73
2019-04-27T07:07:35.273Z,98879.75
2019-04-27T07:10:01.845Z,98890.56
2019-04-27T07:12:28.939Z,98889.38
2019-04-27T07:14:55.675Z,98888.53
2019-04-27T07:17:22.276Z,98884.96
2019-04-27T07:19:49.710Z,98894.55
2019-04-27T07:22:16.439Z,98888.10
2019-04-27T07:24:43.013Z,98888.00
2019-04-27T07:27:11.177Z,98887.23
2019-04-27T07:29:39.148Z,98893.47
2019-04-27T07:32:06.077Z,98901.54
2019-04-27T07:34:32.652Z,98896.41
2019-04-27T07:36:59.877Z,98895.15
2019-04-27T07:39:26.520Z,98891.11
2019-04-27T07:41:53.120Z,98887.73
2019-04-27T07:44:19.692Z,98891.73
2019-04-27T07:46:46.312Z,98887.53
2019-04-27T07:49:12.878Z,98874.06
2019-04-27T07:51:39.494Z,98876.31
2019-04-27T07:54:06.077Z,98882.88
2019-04-27T07:56:32.694Z,98890.88
2019-04-27T07:58:59.621Z,98893.19
2019-04-27T08:01:26.335Z,98897.65
2019-04-27T08:03:52.955Z,98895.53
2019-04-27T08:06:19.537Z,98896.68
2019-04-27T08:08:46.125Z,98893.33
2019-04-27T08:11:12.700Z,98881.30
2019-04-27T08:13:39.465Z,98877.09
2019-04-27T08:16:06.163Z,98878.57
2019-04-27T08:18:32.768Z,98885.99
2019-04-27T08:20:59.337Z,98886.05
2019-04-27T08:23:25.977Z,98882.45
2019-04-27T08:25:52.540Z,98877.80
2019-04-27T08:28:19.152Z,98862.52
2019-04-27T08:30:45.729Z,98864.22
2019-04-27T08:33:12.347Z,98866.80
2019-04-27T08:35:40.588Z,98867.00
2019-04-27T08:38:09.015Z,98867.69
2019-04-27T08:40:35.778Z,98872.45
2019-04-27T08:43:02.399Z,98873.36
2019-04-27T08:45:29.327Z,98869.94
2019-04-27T08:47:56.055Z,98866.66
2019-04-27T08:50:22.642Z,98868.24
2019-04-27T08:52:50.198Z,98866.12
2019-04-27T08:55:17.011Z,98860.96
2019-04-27T08:57:43.607Z,98872.65
2019-04-27T09:00:10.184Z,98880.47
2019-04-27T09:02:44.452Z,98875.81
2019-04-27T09:05:05.106Z,98881.50
2019-04-27T09:07:31.912Z,98887.84
2019-04-27T09:09:59.620Z,98897.84
2019-04-27T09:12:26.395Z,98897.95
2019-04-27T09:14:52.992Z,98904.08
2019-04-27T09:17:19.654Z,98901.36
2019-04-27T09:19:46.270Z,98901.02
2019-04-27T09:22:16.413Z,98899.18
2019-04-27T09:24:42.273Z,98904.63
2019-04-27T09:27:09.617Z,98908.94
2019-04-27T09:29:36.422Z,98911.09
2019-04-27T09:32:03.002Z,98916.88
2019-04-27T09:34:29.616Z,98919.80
2019-04-27T09:36:56.642Z,98923.73
2019-04-27T09:39:23.369Z,98918.28
2019-04-27T09:41:49.963Z,98927.20
2019-04-27T09:44:16.570Z,98923.58
2019-04-27T09:46:43.159Z,98924.94
2019-04-27T09:49:12.064Z,98932.53
2019-04-27T09:51:38.103Z,98935.67
2019-04-27T09:54:05.858Z,98941.09
2019-04-27T09:56:32.475Z,98928.84
2019-04-27T09:58:59.087Z,98932.23
2019-04-27T10:01:26.491Z,98932.30
2019-04-27T10:03:54.003Z,98937.78
2019-04-27T10:06:20.577Z,98932.77
2019-04-27T10:08:47.173Z,98932.06
2019-04-27T10:11:13.746Z,98930.17
2019-04-27T10:13:40.355Z,98932.63
2019-04-27T10:16:06.934Z,98931.09
2019-04-27T10:18:33.510Z,98932.21
2019-04-27T10:21:02.233Z,98933.72
2019-04-27T10:23:28.498Z,98935.47
2019-04-27T10:25:56.322Z,98944.31
2019-04-27T10:28:22.925Z,98944.73
2019-04-27T10:30:49.540Z,98945.33
2019-04-27T10:33:16.227Z,98946.17
2019-04-27T10:35:42.819Z,98946.69
2019-04-27T10:38:09.385Z,98938.22
2019-04-27T10:40:36.002Z,98939.44
2019-04-27T10:43:02.597Z,98948.69
2019-04-27T10:45:29.205Z,98943.69
2019-04-27T10:47:56.270Z,98946.09
2019-04-27T10:50:23.089Z,98942.42
2019-04-27T10:52:53.568Z,98941.66
2019-04-27T10:55:18.062Z,98937.72
2019-04-27T10:57:44.636Z,98934.48
2019-04-27T11:00:11.256Z,98938.27
2019-04-27T11:02:37.840Z,98933.10
2019-04-27T11:05:04.461Z,98939.89
2019-04-27T11:07:31.051Z,98943.18
2019-04-27T11:09:57.660Z,98935.81
2019-04-27T11:12:24.240Z,98936.92
2019-04-27T11:14:50.852Z,98933.06
2019-04-27T11:17:17.426Z,98938.03
2019-04-27T11:19:45.927Z,98939.02
2019-04-27T11:22:12.494Z,98936.66
2019-04-27T11:24:39.115Z,98937.77
2019-04-27T11:27:05.888Z,98931.23
2019-04-27T11:29:32.695Z,98941.18
2019-04-27T11:31:59.324Z,98938.66
2019-04-27T11:34:25.926Z,98943.75
2019-04-27T11:36:52.510Z,98934.70
2019-04-27T11:39:21.141Z,98934.84
2019-04-27T11:41:47.421Z,98936.66
2019-04-27T11:46:59.475Z,98915.88
2019-04-27T11:49:26.091Z,98912.08
2019-04-27T11:51:52.660Z,98917.97
2019-04-27T11:54:19.235Z,98925.56
2019-04-27T11:56:47.210Z,98924.31
2019-04-27T11:59:14.014Z,98924.59
2019-04-27T12:01:42.204Z,98917.53
2019-04-27T12:04:08.778Z,98926.27
2019-04-27T12:06:35.854Z,98928.67
2019-04-27T12:09:02.541Z,98928.05
2019-04-27T12:11:29.156Z,98923.20
2019-04-27T12:13:56.256Z,98924.05
2019-04-27T12:16:22.936Z,98922.85
2019-04-27T12:18:49.513Z,98922.63
2019-04-27T12:21:16.137Z,98916.95
2019-04-27T12:23:42.703Z,98915.92
2019-04-27T12:26:09.328Z,98909.41
2019-04-27T12:28:35.907Z,98908.70
2019-04-27T12:31:02.496Z,98915.00
2019-04-27T12:33:29.070Z,98905.46
2019-04-27T12:35:56.922Z,98908.75
2019-04-27T12:38:23.651Z,98911.41
2019-04-27T12:40:50.261Z,98914.42
2019-04-27T12:43:16.840Z,98906.79
2019-04-27T12:45:43.715Z,98910.16
2019-04-27T12:48:11.029Z,98909.67
2019-04-27T12:50:37.644Z,98911.00
2019-04-27T12:53:04.214Z,98904.84
2019-04-27T12:55:30.827Z,98909.45
2019-04-27T12:57:57.415Z,98910.92
2019-04-27T13:00:23.986Z,98915.54
2019-04-27T13:02:50.585Z,98907.01
2019-04-27T13:05:17.152Z,98906.30
2019-04-27T13:07:43.752Z,98901.24
2019-04-27T13:10:10.325Z,98890.24
2019-04-27T13:12:36.928Z,98891.92
2019-04-27T13:15:03.500Z,98889.97
2019-04-27T13:17:30.103Z,98887.39
2019-04-27T13:19:56.679Z,98881.49
2019-04-27T13:22:23.291Z,98884.59
2019-04-27T13:24:49.874Z,98882.90
2019-04-27T13:27:16.728Z,98886.08
2019-04-27T13:29:43.346Z,98882.55
2019-04-27T13:32:09.958Z,98882.22
2019-04-27T13:34:38.303Z,98885.70
2019-04-27T13:37:05.039Z,98879.02
2019-04-27T13:39:31.609Z,98873.48
2019-04-27T13:41:58.203Z,98880.04
2019-04-27T13:44:26.226Z,98878.11
2019-04-27T13:46:52.993Z,98877.12
2019-04-27T13:49:19.567Z,98883.93
2019-04-27T13:51:46.183Z,98872.91
2019-04-27T13:54:18.777Z,98867.38
2019-04-27T13:56:41.111Z,98870.53
2019-04-27T13:59:07.937Z,98863.38
2019-04-27T14:01:34.534Z,98865.97
2019-04-27T14:04:01.126Z,98859.86
2019-04-27T14:06:27.717Z,98869.05
2019-04-27T14:08:54.392Z,98869.89
2019-04-27T14:11:20.973Z,98864.07
2019-04-27T14:13:48.452Z,98863.23
2019-04-27T14:16:15.242Z,98869.41
2019-04-27T14:18:41.877Z,98855.86
2019-04-27T14:21:09.443Z,98863.16
2019-04-27T14:23:36.105Z,98862.25
2019-04-27T14:26:02.674Z,98863.38
2019-04-27T14:28:29.335Z,98866.95
2019-04-27T14:30:56.054Z,98859.38
2019-04-27T14:33:22.643Z,98864.45
2019-04-27T14:35:49.980Z,98861.50
2019-04-27T14:38:16.713Z,98863.39
2019-04-27T14:40:43.293Z,98858.86
2019-04-27T14:43:09.902Z,98856.48
2019-04-27T14:45:38.303Z,98851.86
2019-04-27T14:48:04.826Z,98845.23
2019-04-27T14:50:31.413Z,98843.97
2019-04-27T14:52:59.026Z,98855.41
2019-04-27T14:55:25.788Z,98860.64
2019-04-27T14:57:52.393Z,98856.50
2019-04-27T15:00:19.273Z,98848.16
2019-04-27T15:02:45.903Z,98851.48
2019-04-27T15:05:12.480Z,98848.75
2019-04-27T15:07:39.097Z,98847.34
2019-04-27T15:10:05.667Z,98848.95
2019-04-27T15:12:32.475Z,98842.92
2019-04-27T15:15:01.224Z,98846.42
2019-04-27T15:17:27.417Z,98849.75
2019-04-27T15:19:54.007Z,98849.23
2019-04-27T15:22:22.660Z,98850.03
2019-04-27T15:25:07.796Z,98846.03
2019-04-27T15:27:17.276Z,98839.38
2019-04-27T15:29:43.896Z,98837.91
2019-04-27T15:32:12.352Z,98829.25
2019-04-27T15:34:40.048Z,98834.44
2019-04-27T15:37:07.959Z,98829.91
2019-04-27T15:39:34.721Z,98831.17
2019-04-27T15:42:07.888Z,98827.09
2019-04-27T15:44:29.624Z,98826.53
2019-04-27T15:46:57.917Z,98819.34
2019-04-27T15:49:24.700Z,98825.65
2019-04-27T15:51:54.751Z,98822.42
2019-04-27T15:54:22.359Z,98827.05
2019-04-27T15:56:47.920Z,98828.52
2019-04-27T15:59:14.519Z,98827.81
2019-04-27T16:01:41.098Z,98837.13
2019-04-27T16:04:11.177Z,98836.78
2019-04-27T16:06:35.995Z,98838.95
2019-04-27T16:09:02.855Z,98840.77
2019-04-27T16:11:29.434Z,98833.91
2019-04-27T16:13:56.044Z,98835.72
2019-04-27T16:16:24.469Z,98839.39
2019-04-27T16:18:51.033Z,98836.17
2019-04-27T16:21:17.870Z,98830.98
2019-04-27T16:23:45.934Z,98833.91
2019-04-27T16:26:15.035Z,98827.53
2019-04-27T16:28:43.076Z,98829.48
2019-04-27T16:31:09.145Z,98820.83
2019-04-27T16:33:35.724Z,98827.13
2019-04-27T16:36:06.848Z,98824.12
2019-04-27T16:38:33.650Z,98826.08
2019-04-27T16:41:03.057Z,98830.69
2019-04-27T16:43:30.226Z,98831.31
2019-04-27T16:45:57.907Z,98838.46
2019-04-27T16:48:28.013Z,98844.27
2019-04-27T16:50:55.142Z,98849.11
2019-04-27T16:53:20.580Z,98848.89
2019-04-27T16:55:59.548Z,98848.81
2019-04-27T16:58:17.771Z,98850.09
2019-04-27T17:00:43.967Z,98853.96
2019-04-27T17:03:10.545Z,98855.34
2019-04-27T17:05:38.025Z,98864.38
2019-04-27T17:08:04.812Z,98870.95
2019-04-27T17:10:31.500Z,98866.51
2019-04-27T17:12:59.121Z,98867.78
2019-04-27T17:15:25.961Z,98871.69
2019-04-27T17:17:52.518Z,98863.25
2019-04-27T17:20:21.200Z,98863.52
2019-04-27T17:22:50.205Z,98857.52
2019-04-27T17:25:20.037Z,98863.81
2019-04-27T17:27:44.046Z,98868.42
2019-04-27T17:30:10.658Z,98869.40
2019-04-27T17:32:38.846Z,98879.68
2019-04-27T17:35:08.748Z,98872.45
2019-04-27T17:37:34.031Z,98873.20
2019-04-27T17:40:00.942Z,98871.80
2019-04-27T17:42:30.634Z,98870.61
2019-04-27T17:44:57.678Z,98867.50
2019-04-27T17:47:26.598Z,98882.38
2019-04-27T17:49:52.629Z,98878.30
2019-04-27T17:52:19.239Z,98877.39
2019-04-27T17:54:47.363Z,98876.44
2019-04-27T17:57:14.136Z,98877.67
2019-04-27T17:59:40.723Z,98873.75
2019-04-27T18:02:08.886Z,98872.67
2019-04-27T18:04:37.656Z,98870.88
2019-04-27T18:07:03.966Z,98875.48
2019-04-27T18:09:33.502Z,98884.07
2019-04-27T18:11:58.886Z,98886.53
2019-04-27T18:14:25.458Z,98895.67
2019-04-27T18:16:52.068Z,98898.00
2019-04-27T18:19:18.650Z,98914.55
2019-04-27T18:21:45.283Z,98912.48
2019-04-27T18:24:11.850Z,98915.52
2019-04-27T18:26:48.812Z,98914.44
2019-04-27T18:29:08.154Z,98921.20
2019-04-27T18:31:34.834Z,98929.17
2019-04-27T18:34:01.421Z,98923.14
2019-04-27T18:36:29.504Z,98931.59
2019-04-27T18:38:56.184Z,98930.27
2019-04-27T18:41:22.803Z,98931.75
2019-04-27T18:43:52.206Z,98931.88
2019-04-27T18:46:21.964Z,98935.02
2019-04-27T18:48:50.242Z,98927.30
2019-04-27T18:51:14.353Z,98916.92
2019-04-27T18:53:40.945Z,98920.19
2019-04-27T18:56:08.069Z,98925.50
2019-04-27T18:58:36.008Z,98914.64
2019-04-27T19:01:02.591Z,98917.78
2019-04-27T19:03:31.579Z,98914.56
2019-04-27T19:05:58.242Z,98917.95
2019-04-27T19:08:24.888Z,98915.19
2019-04-27T19:10:51.461Z,98915.43
2019-04-27T19:13:19.174Z,98912.54
2019-04-27T19:15:46.014Z,98902.68
2019-04-27T19:18:12.628Z,98902.93
2019-04-27T19:20:39.212Z,98902.08
2019-04-27T19:23:05.801Z,98900.52
2019-04-27T19:25:32.373Z,98902.69
2019-04-27T19:27:58.978Z,98902.20
2019-04-27T19:30:25.547Z,98909.33
2019-04-27T19:32:52.165Z,98903.17
2019-04-27T19:35:19.999Z,98912.95
2019-04-27T19:37:48.553Z,98905.47
2019-04-27T19:40:15.072Z,98902.33
2019-04-27T19:42:41.668Z,98902.20
2019-04-27T19:45:08.246Z,98899.80
2019-04-27T19:47:34.862Z,98906.44
2019-04-27T19:50:01.452Z,98902.45
2019-04-27T19:52:28.281Z,98903.42
2019-04-27T19:54:54.889Z,98900.77
2019-04-27T19:57:31.787Z,98908.73
2019-04-27T19:59:49.790Z,98895.09
2019-04-27T20:02:16.410Z,98892.08
2019-04-27T20:04:43.023Z,98890.14
2019-04-27T20:07:10.641Z,98888.34
2019-04-27T20:09:37.370Z,98890.98
2019-04-27T20:12:05.272Z,98895.09
2019-04-27T20:14:32.298Z,98902.22
2019-04-27T20:16:58.867Z,98905.35
2019-04-27T20:19:25.483Z,98898.59
2019-04-27T20:21:52.056Z,98899.31
2019-04-27T20:24:18.658Z,98905.83
2019-04-27T20:26:45.238Z,98897.02
2019-04-27T20:29:11.961Z,98906.41
2019-04-27T20:31:38.581Z,98907.22
2019-04-27T20:34:05.205Z,98909.50
2019-04-27T20:36:31.776Z,98907.64
2019-04-27T20:38:58.380Z,98904.25
2019-04-27T20:41:24.954Z,98901.70
2019-04-27T20:43:51.547Z,98904.47
2019-04-27T20:46:18.594Z,98901.05
2019-04-27T20:48:45.407Z,98902.97
2019-04-27T20:51:12.037Z,98903.56
2019-04-27T20:53:38.639Z,98901.74
2019-04-27T20:56:05.218Z,98904.99
2019-04-27T20:58:31.833Z,98904.50
2019-04-27T21:00:58.406Z,98910.57
2019-04-27T21:03:25.118Z,98906.95
2019-04-27T21:05:51.696Z,98900.66
2019-04-27T21:08:18.311Z,98898.69
2019-04-27T21:10:44.884Z,98893.60
2019-04-27T21:13:11.461Z,98888.64
2019-04-27T21:15:38.054Z,98887.67
2019-04-27T21:18:04.627Z,98895.16
2019-04-27T21:20:31.252Z,98895.65
2019-04-27T21:22:57.870Z,98888.16
2019-04-27T21:25:24.486Z,98895.77
2019-04-27T21:27:51.401Z,98898.92
2019-04-27T21:30:18.048Z,98897.59
2019-04-27T21:32:44.616Z,98902.91
2019-04-27T21:35:11.225Z,98899.77
2019-04-27T21:37:37.800Z,98889.97
2019-04-27T21:40:04.413Z,98890.46
2019-04-27T21:42:31.004Z,98891.78
2019-04-27T21:44:57.622Z,98886.83
2019-04-27T21:47:24.190Z,98882.00
2019-04-27T21:49:51.767Z,98883.81
2019-04-27T21:52:18.570Z,98885.75
2019-04-27T21:54:45.180Z,98893.17
2019-04-27T21:57:12.760Z,98888.95
2019-04-27T21:59:39.751Z,98890.38
2019-04-27T22:02:06.386Z,98886.88
2019-04-27T22:04:32.993Z,98884.83
2019-04-27T22:07:01.249Z,98891.48
2019-04-27T22:09:28.084Z,98886.52
2019-04-27T22:11:54.654Z,98882.17
2019-04-27T22:14:22.428Z,98882.17
2019-04-27T22:16:49.001Z,98878.67
2019-04-27T22:19:15.609Z,98877.83
2019-04-27T22:21:42.210Z,98882.79
2019-04-27T22:24:08.887Z,98876.76
2019-04-27T22:26:35.527Z,98884.85
2019-04-27T22:29:02.123Z,98882.32
2019-04-27T22:31:28.723Z,98882.61
2019-04-27T22:33:55.351Z,98887.69
2019-04-27T22:36:21.964Z,98886.13
2019-04-27T22:38:48.539Z,98879.73
2019-04-27T22:41:15.149Z,98877.69
2019-04-27T22:43:41.750Z,98876.48
2019-04-27T22:46:08.430Z,98874.31
2019-04-27T22:48:35.002Z,98878.78
2019-04-27T22:51:01.695Z,98879.91
2019-04-27T22:53:28.276Z,98876.66
2019-04-27T22:55:55.059Z,98880.41
2019-04-27T22:58:21.838Z,98873.66
2019-04-27T23:00:48.435Z,98879.50
2019-04-27T23:03:15.061Z,98875.66
2019-04-27T23:05:42.986Z,98877.64
2019-04-27T23:08:09.734Z,98879.58
2019-04-27T23:10:36.361Z,98879.86
2019-04-27T23:13:02.936Z,98881.80
2019-04-27T23:15:30.636Z,98886.90
2019-04-27T23:17:57.844Z,98884.25
2019-04-27T23:20:24.419Z,98881.11
2019-04-27T23:22:51.030Z,98883.16
2019-04-27T23:25:17.645Z,98883.92
2019-04-27T23:27:44.287Z,98883.80
2019-04-27T23:30:11.369Z,98883.52
2019-04-27T23:32:38.152Z,98878.45
2019-04-27T23:35:04.732Z,98881.34
2019-04-27T23:37:31.335Z,98875.95
2019-04-27T23:39:57.913Z,98872.81
2019-04-27T23:42:24.531Z,98877.62
2019-04-27T23:44:51.099Z,98867.89
2019-04-27T23:47:17.726Z,98872.70
2019-04-27T23:49:44.308Z,98862.45
2019-04-27T23:52:10.925Z,98871.27
2019-04-27T23:54:37.505Z,98871.26
2019-04-27T23:57:04.123Z,98875.22
2019-04-27T23:59:31.374Z,98868.61
